Time;durP1;ratioP1;P1;durP2;ratioP2;P2;SDS_P1;SDS_P2;PMS_P1;PMS_P2;Temp;Humidity;BMP_temperature;BMP_pressure;BME280_temperature;BME280_humidity;BME280_pressure;Samples;Min_cycle;Max_cycle;Signal;HPM_P1;HPM_P2
2022/10/07 00:00:53;;;;;;;7.75;2.33;;;12.90;99.90;;;;;;5025129;28;20045;-72
2022/10/07 00:03:21;;;;;;;11.70;2.13;;;12.90;99.90;;;;;;5045175;28;20401;-71
2022/10/07 00:06:05;;;;;;;10.32;1.80;;;12.90;99.90;;;;;;5027758;28;20049;-71
2022/10/07 00:08:34;;;;;;;12.30;1.23;;;12.90;99.90;;;;;;5030055;28;20053;-71
2022/10/07 00:11:07;;;;;;;10.93;2.00;;;12.80;99.90;;;;;;5026186;28;20156;-72
2022/10/07 00:13:35;;;;;;;9.95;2.10;;;12.80;99.90;;;;;;5026504;28;20764;-72
2022/10/07 00:16:09;;;;;;;11.48;1.85;;;12.80;99.90;;;;;;5032941;28;20041;-71
2022/10/07 00:18:37;;;;;;;16.27;1.92;;;12.80;99.90;;;;;;5030360;28;20053;-72
2022/10/07 00:21:10;;;;;;;4.82;1.45;;;12.80;99.90;;;;;;5032159;28;20080;-72
2022/10/07 00:23:38;;;;;;;9.20;2.15;;;12.80;99.90;;;;;;5031014;28;20149;-71
2022/10/07 00:26:08;;;;;;;6.20;1.50;;;12.80;99.90;;;;;;5032887;28;20049;-72
2022/10/07 00:28:36;;;;;;;14.60;1.73;;;12.80;99.90;;;;;;5030997;28;20061;-72
2022/10/07 00:31:06;;;;;;;10.35;1.75;;;12.80;99.90;;;;;;5031307;28;20190;-72
2022/10/07 00:33:36;;;;;;;8.40;1.63;;;12.80;99.90;;;;;;5029846;28;20053;-72
2022/10/07 00:36:11;;;;;;;11.15;1.58;;;12.80;99.90;;;;;;5033853;28;20049;-72
2022/10/07 00:38:40;;;;;;;10.27;2.05;;;12.80;99.90;;;;;;5029198;28;20112;-72
2022/10/07 00:41:12;;;;;;;7.05;1.63;;;12.80;99.90;;;;;;5029090;28;20057;-72
2022/10/07 00:43:39;;;;;;;10.27;1.85;;;12.90;99.90;;;;;;5032476;28;20063;-72
2022/10/07 00:46:13;;;;;;;8.05;1.83;;;12.90;99.90;;;;;;5028016;28;20058;-72
2022/10/07 00:48:43;;;;;;;11.63;1.80;;;12.90;99.90;;;;;;5025470;28;20150;-73
2022/10/07 00:51:15;;;;;;;9.63;1.70;;;12.80;99.90;;;;;;5030043;28;20051;-72
2022/10/07 00:53:45;;;;;;;8.52;2.05;;;12.80;99.90;;;;;;5031128;28;20087;-72
2022/10/07 00:56:15;;;;;;;6.93;1.50;;;12.90;99.90;;;;;;5030431;28;20046;-72
2022/10/07 00:58:45;;;;;;;4.45;1.38;;;12.90;99.90;;;;;;5030064;28;20131;-72
2022/10/07 01:01:12;;;;;;;12.15;2.58;;;12.90;99.90;;;;;;5029675;28;20134;-72
2022/10/07 01:03:42;;;;;;;9.20;1.45;;;12.90;99.90;;;;;;5031431;28;20049;-72
2022/10/07 01:06:10;;;;;;;7.65;1.65;;;12.90;99.90;;;;;;5031176;28;20057;-72
2022/10/07 01:08:41;;;;;;;9.90;2.08;;;12.90;99.90;;;;;;5031477;28;20045;-72
2022/10/07 01:11:19;;;;;;;12.77;1.83;;;12.90;99.90;;;;;;5030084;28;20236;-72
2022/10/07 01:14:02;;;;;;;10.48;1.80;;;13.00;99.90;;;;;;5031758;28;20051;-72
2022/10/07 01:16:40;;;;;;;9.98;1.77;;;13.00;99.90;;;;;;5025613;28;20045;-72
2022/10/07 01:19:30;;;;;;;10.57;1.52;;;13.00;99.90;;;;;;5027539;28;20137;-73
2022/10/07 01:22:15;;;;;;;7.65;1.40;;;13.00;99.90;;;;;;5011929;28;20417;-72
2022/10/07 01:24:49;;;;;;;5.75;1.30;;;13.00;99.90;;;;;;5026724;28;20860;-72
2022/10/07 01:27:22;;;;;;;9.80;2.55;;;13.00;99.90;;;;;;5031107;28;20057;-72
2022/10/07 01:29:55;;;;;;;10.55;2.30;;;13.00;99.90;;;;;;5031216;28;20057;-73
2022/10/07 01:32:31;;;;;;;6.40;1.75;;;13.00;99.90;;;;;;5030775;28;20045;-73
2022/10/07 01:35:04;;;;;;;8.07;2.45;;;13.00;99.90;;;;;;5041022;28;20065;-72
2022/10/07 01:37:41;;;;;;;14.60;3.17;;;13.00;99.90;;;;;;5029878;28;20531;-71
2022/10/07 01:40:14;;;;;;;15.65;2.20;;;13.00;99.90;;;;;;5009618;28;20140;-72
2022/10/07 01:42:44;;;;;;;;;;;13.10;99.90;;;;;;5023681;28;20050;-72
2022/10/07 01:45:15;;;;;;;15.55;2.47;;;13.00;99.90;;;;;;5030285;28;20452;-71
2022/10/07 01:47:43;;;;;;;8.65;1.83;;;13.00;99.90;;;;;;5013863;28;20060;-72
2022/10/07 01:50:12;;;;;;;9.90;2.65;;;13.00;99.90;;;;;;5031586;28;20099;-72
2022/10/07 01:52:59;;;;;;;7.85;1.98;;;13.00;99.90;;;;;;5027982;28;20037;-72
2022/10/07 01:55:45;;;;;;;12.00;2.42;;;13.00;99.90;;;;;;5027334;28;20124;-72
2022/10/07 01:58:40;;;;;;;14.25;2.20;;;13.00;99.90;;;;;;5038656;28;20513;-72
2022/10/07 02:01:17;;;;;;;10.85;2.03;;;13.00;99.90;;;;;;5027129;28;20049;-72
2022/10/07 02:04:22;;;;;;;12.23;2.47;;;13.00;99.90;;;;;;5030876;28;20072;-72
2022/10/07 02:07:01;;;;;;;15.00;1.88;;;13.00;99.90;;;;;;5025451;28;20077;-72
2022/10/07 02:09:35;;;;;;;8.95;1.83;;;13.00;99.90;;;;;;5028805;28;20064;-73
2022/10/07 02:12:14;;;;;;;13.70;2.20;;;13.00;99.90;;;;;;5041731;28;20049;-72
2022/10/07 02:14:55;;;;;;;9.07;2.47;;;13.00;99.90;;;;;;5028475;28;20041;-73
2022/10/07 02:17:27;;;;;;;14.00;2.60;;;13.10;99.90;;;;;;5029041;28;20057;-72
2022/10/07 02:19:56;;;;;;;12.60;2.28;;;13.00;99.90;;;;;;5016854;28;20092;-73
2022/10/07 02:22:28;;;;;;;13.70;2.05;;;13.00;99.90;;;;;;5030840;28;20074;-72
2022/10/07 02:24:58;;;;;;;12.15;2.03;;;13.10;99.90;;;;;;5028880;28;20464;-73
2022/10/07 02:27:32;;;;;;;15.65;2.92;;;13.00;99.90;;;;;;5013439;28;20046;-72
2022/10/07 02:30:06;;;;;;;12.40;2.83;;;13.10;99.90;;;;;;5042447;28;20390;-72
2022/10/07 02:32:36;;;;;;;15.95;3.20;;;13.00;99.90;;;;;;5028964;28;20486;-73
2022/10/07 02:35:16;;;;;;;9.32;2.05;;;13.00;99.90;;;;;;5027915;28;20567;-72
2022/10/07 02:37:46;;;;;;;16.70;2.03;;;13.00;99.90;;;;;;5022959;28;20069;-73
2022/10/07 02:40:14;;;;;;;11.88;2.00;;;13.00;99.90;;;;;;5026309;28;20501;-73
2022/10/07 02:42:52;;;;;;;7.75;2.00;;;12.90;99.90;;;;;;5032386;28;20442;-72
2022/10/07 02:45:27;;;;;;;10.15;2.58;;;12.90;99.90;;;;;;5043281;28;20130;-72
2022/10/07 02:48:00;;;;;;;14.65;3.05;;;12.90;99.90;;;;;;5009428;28;20072;-73
2022/10/07 02:50:36;;;;;;;16.92;2.92;;;13.00;99.90;;;;;;5030050;28;20518;-72
2022/10/07 02:53:06;;;;;;;12.95;2.83;;;12.90;99.90;;;;;;5030709;28;20061;-72
2022/10/07 02:55:35;;;;;;;9.85;2.67;;;12.90;99.90;;;;;;5012439;28;20413;-72
2022/10/07 02:58:07;;;;;;;15.32;3.17;;;12.90;99.90;;;;;;5027313;28;20095;-72
2022/10/07 03:00:40;;;;;;;10.13;2.22;;;12.90;99.90;;;;;;5027980;28;20053;-72
2022/10/07 03:03:09;;;;;;;16.35;2.28;;;12.90;99.90;;;;;;5031051;28;20112;-73
2022/10/07 03:05:48;;;;;;;13.75;1.75;;;12.90;99.90;;;;;;5021143;28;20559;-73
2022/10/07 03:08:16;;;;;;;9.77;2.30;;;12.90;99.90;;;;;;5028459;28;20053;-73
2022/10/07 03:10:44;;;;;;;11.20;2.00;;;12.90;99.90;;;;;;5027961;28;20040;-73
2022/10/07 03:13:14;;;;;;;13.32;2.85;;;12.80;99.90;;;;;;5029065;28;20375;-73
2022/10/07 03:15:46;;;;;;;16.90;2.97;;;12.80;99.90;;;;;;5026758;28;20042;-73
2022/10/07 03:18:28;;;;;;;14.48;2.30;;;12.60;99.90;;;;;;5029494;28;20045;-73
2022/10/07 03:21:15;;;;;;;9.43;2.00;;;12.40;99.90;;;;;;5019218;28;20061;-73
2022/10/07 03:23:43;;;;;;;8.27;2.15;;;12.20;99.90;;;;;;5028915;28;20187;-73
2022/10/07 03:26:12;;;;;;;10.50;2.00;;;12.20;99.90;;;;;;5028124;28;20045;-73
2022/10/07 03:28:39;;;;;;;14.23;2.13;;;12.10;99.90;;;;;;5044875;28;20057;-73
2022/10/07 03:31:11;;;;;;;19.38;3.13;;;12.20;99.90;;;;;;5028335;28;20358;-73
2022/10/07 03:33:44;;;;;;;14.82;2.47;;;12.10;99.90;;;;;;5026400;28;20053;-73
2022/10/07 03:36:12;;;;;;;12.10;2.72;;;12.20;99.90;;;;;;5021549;28;20059;-73
2022/10/07 03:38:42;;;;;;;14.98;2.10;;;12.10;99.90;;;;;;5011094;28;20051;-73
2022/10/07 03:41:11;;;;;;;16.95;2.55;;;12.20;99.90;;;;;;5027871;28;20046;-73
2022/10/07 03:43:39;;;;;;;10.02;2.28;;;12.10;99.90;;;;;;5026814;28;20072;-73
2022/10/07 03:46:09;;;;;;;19.60;2.45;;;12.10;99.90;;;;;;5028432;28;20179;-72
2022/10/07 03:48:38;;;;;;;10.60;2.30;;;12.10;99.90;;;;;;4991791;28;20062;-72
2022/10/07 03:51:06;;;;;;;12.73;2.13;;;12.00;99.90;;;;;;5032203;28;20057;-71
2022/10/07 03:53:38;;;;;;;12.82;2.15;;;12.00;99.90;;;;;;5031025;28;20046;-71
2022/10/07 03:56:06;;;;;;;13.23;2.33;;;12.00;99.90;;;;;;5046790;28;20119;-71
2022/10/07 03:58:35;;;;;;;18.15;2.80;;;12.00;99.90;;;;;;5014343;28;20516;-71
2022/10/07 04:01:11;;;;;;;14.55;1.85;;;12.00;99.90;;;;;;5032334;28;20050;-72
2022/10/07 04:03:44;;;;;;;16.05;3.20;;;12.00;99.90;;;;;;5014099;28;20053;-72
2022/10/07 04:06:14;;;;;;;20.48;3.00;;;11.90;99.90;;;;;;5022739;28;20537;-75
2022/10/07 04:08:45;;;;;;;22.73;2.58;;;11.80;99.90;;;;;;5033386;28;20064;-76
2022/10/07 04:11:13;;;;;;;10.52;2.22;;;11.70;99.90;;;;;;5026643;28;20056;-76
2022/10/07 04:13:44;;;;;;;13.48;2.42;;;11.60;99.90;;;;;;5021304;28;20505;-76
2022/10/07 04:16:13;;;;;;;14.63;2.42;;;11.50;99.90;;;;;;5015068;28;20494;-76
2022/10/07 04:18:40;;;;;;;14.63;3.15;;;11.40;99.90;;;;;;5032142;28;20144;-70
2022/10/07 04:21:09;;;;;;;11.93;2.65;;;11.40;99.90;;;;;;5036981;28;20045;-70
2022/10/07 04:23:37;;;;;;;9.23;2.63;;;11.40;99.90;;;;;;5032069;28;20058;-72
2022/10/07 04:26:09;;;;;;;11.80;2.20;;;11.40;99.90;;;;;;5031280;28;20084;-71
2022/10/07 04:28:38;;;;;;;11.80;3.30;;;11.40;99.90;;;;;;5030799;28;20052;-71
2022/10/07 04:31:13;;;;;;;12.07;2.70;;;11.40;99.90;;;;;;5027840;28;20814;-71
2022/10/07 04:33:43;;;;;;;14.38;2.30;;;11.40;99.90;;;;;;5028690;28;20046;-71
2022/10/07 04:36:14;;;;;;;10.00;2.88;;;11.50;99.90;;;;;;5038412;28;20050;-71
2022/10/07 04:38:50;;;;;;;12.73;2.40;;;11.50;99.90;;;;;;5042963;28;20391;-71
2022/10/07 04:41:22;;;;;;;14.15;2.92;;;11.60;99.90;;;;;;5016037;28;20575;-72
2022/10/07 04:43:50;;;;;;;17.42;2.33;;;11.60;99.90;;;;;;5026555;28;20046;-71
2022/10/07 04:46:19;;;;;;;17.08;2.70;;;11.70;99.90;;;;;;5011627;28;20054;-72
2022/10/07 04:48:55;;;;;;;16.73;2.45;;;11.70;99.90;;;;;;5009294;28;20053;-71
2022/10/07 04:51:26;;;;;;;11.40;2.00;;;11.80;99.90;;;;;;5032320;28;20167;-76
2022/10/07 04:53:57;;;;;;;11.02;1.85;;;11.80;99.90;;;;;;5029919;28;20132;-76
2022/10/07 04:56:49;;;;;;;10.27;2.08;;;11.90;99.90;;;;;;5028185;28;20041;-72
2022/10/07 04:59:19;;;;;;;10.75;2.38;;;11.90;99.90;;;;;;5008760;28;20056;-76
2022/10/07 05:01:48;;;;;;;14.77;3.70;;;11.90;99.90;;;;;;5026259;28;20580;-77
2022/10/07 05:04:16;;;;;;;17.17;2.67;;;12.00;99.90;;;;;;5029657;28;20080;-75
2022/10/07 05:06:44;;;;;;;11.32;2.92;;;12.00;99.90;;;;;;5013827;28;20437;-76
2022/10/07 05:09:13;;;;;;;12.90;2.53;;;11.90;99.90;;;;;;5031164;28;20073;-76
2022/10/07 05:11:44;;;;;;;9.10;2.40;;;11.90;99.90;;;;;;5031365;28;20057;-76
2022/10/07 05:14:20;;;;;;;14.70;2.75;;;11.90;99.90;;;;;;5030626;28;20056;-76
2022/10/07 05:16:49;;;;;;;15.43;2.58;;;11.90;99.90;;;;;;5039517;28;20124;-76
2022/10/07 05:19:18;;;;;;;13.20;2.35;;;11.90;99.90;;;;;;5013964;28;20085;-76
2022/10/07 05:21:45;;;;;;;13.32;2.55;;;11.90;99.90;;;;;;5033646;28;20060;-73
2022/10/07 05:24:14;;;;;;;9.90;2.30;;;11.80;99.90;;;;;;5030033;28;20041;-71
2022/10/07 05:26:43;;;;;;;12.80;2.58;;;11.80;99.90;;;;;;5044931;28;20143;-75
2022/10/07 05:29:10;;;;;;;13.55;2.63;;;11.90;99.90;;;;;;5029342;28;20170;-75
2022/10/07 05:31:45;;;;;;;16.67;2.25;;;11.90;99.90;;;;;;5030752;28;20347;-77
2022/10/07 05:34:19;;;;;;;12.48;2.33;;;11.90;99.90;;;;;;5024343;28;20753;-76
2022/10/07 05:36:47;;;;;;;10.85;2.67;;;12.00;99.90;;;;;;5016403;28;20049;-74
2022/10/07 05:39:14;;;;;;;11.45;2.47;;;12.10;99.90;;;;;;5025142;28;20045;-77
2022/10/07 05:42:00;;;;;;;11.02;2.95;;;12.10;99.90;;;;;;5027847;28;20033;-76
2022/10/07 05:44:36;;;;;;;10.52;2.55;;;12.10;99.90;;;;;;5026468;28;20060;-76
2022/10/07 05:47:05;;;;;;;7.70;2.10;;;12.20;99.90;;;;;;5013092;28;20142;-72
2022/10/07 05:49:35;;;;;;;16.55;2.28;;;12.20;99.90;;;;;;5026874;28;20069;-73
2022/10/07 05:52:03;;;;;;;8.70;2.38;;;12.30;99.90;;;;;;5028485;28;20506;-73
2022/10/07 05:54:32;;;;;;;9.10;2.38;;;12.30;99.90;;;;;;5024223;28;20053;-72
2022/10/07 05:57:01;;;;;;;15.05;2.65;;;12.40;99.90;;;;;;5009845;28;20505;-73
2022/10/07 05:59:30;;;;;;;12.35;2.20;;;12.40;99.90;;;;;;5011834;28;20057;-73
2022/10/07 06:01:59;;;;;;;15.63;2.28;;;12.40;99.90;;;;;;5023375;28;20041;-73
2022/10/07 06:04:28;;;;;;;9.93;2.75;;;12.40;99.90;;;;;;5012321;28;20567;-72
2022/10/07 06:06:59;;;;;;;16.92;2.80;;;12.40;99.90;;;;;;5026302;28;20139;-75
2022/10/07 06:15:10;;;;;;;12.85;3.00;;;12.00;99.90;;;;;;5033376;28;20452;-75
2022/10/07 06:17:43;;;;;;;14.38;2.63;;;11.90;99.90;;;;;;5025537;28;20041;-74
2022/10/07 06:20:13;;;;;;;15.68;2.45;;;11.90;99.90;;;;;;5022787;28;20473;-74
2022/10/07 06:22:43;;;;;;;14.70;2.72;;;12.00;99.90;;;;;;5025931;28;20183;-77
2022/10/07 06:25:11;;;;;;;13.52;2.78;;;12.20;99.90;;;;;;5041767;28;20099;-77
2022/10/07 06:27:39;;;;;;;13.60;2.97;;;12.40;99.90;;;;;;5026129;28;20088;-77
2022/10/07 06:30:08;;;;;;;12.48;2.53;;;12.40;99.90;;;;;;5026440;28;20542;-77
2022/10/07 06:32:36;;;;;;;14.98;3.00;;;12.50;99.90;;;;;;5030685;28;20501;-76
2022/10/07 06:35:04;;;;;;;17.95;2.90;;;12.60;99.90;;;;;;5046165;28;20041;-75
2022/10/07 06:37:32;;;;;;;13.68;3.17;;;12.80;99.90;;;;;;5029106;28;20037;-77
2022/10/07 06:40:01;;;;;;;16.33;3.30;;;12.90;99.90;;;;;;5037044;28;20428;-77
2022/10/07 06:42:32;;;;;;;14.23;2.50;;;13.10;99.90;;;;;;5017468;28;20124;-77
2022/10/07 06:45:18;;;;;;;17.33;2.80;;;13.20;99.90;;;;;;5026917;28;20056;-77
2022/10/07 06:47:54;;;;;;;15.50;3.10;;;13.20;99.90;;;;;;5035032;28;20045;-77
2022/10/07 06:50:23;;;;;;;10.40;2.30;;;13.20;99.90;;;;;;5025858;28;20059;-77
2022/10/07 06:52:51;;;;;;;13.85;2.65;;;13.20;99.90;;;;;;5024363;28;20437;-77
2022/10/07 06:55:20;;;;;;;18.23;2.75;;;13.20;99.90;;;;;;5027098;28;20107;-76
2022/10/07 06:57:48;;;;;;;11.48;2.67;;;13.20;99.90;;;;;;5032928;28;20461;-77
2022/10/07 07:00:19;;;;;;;9.02;2.70;;;13.20;99.90;;;;;;5027235;28;20053;-77
2022/10/07 07:02:47;;;;;;;14.32;2.80;;;13.50;99.90;;;;;;5003930;28;20096;-74
2022/10/07 07:05:16;;;;;;;15.82;3.65;;;13.80;99.90;;;;;;5008903;28;20136;-73
2022/10/07 07:07:45;;;;;;;10.95;3.17;;;13.90;99.90;;;;;;5025152;28;20148;-78
2022/10/07 07:10:13;;;;;;;14.82;3.10;;;13.70;99.90;;;;;;5011424;28;20049;-79
2022/10/07 07:12:45;;;;;;;14.85;2.83;;;13.60;99.90;;;;;;5026452;28;20099;-77
2022/10/07 07:15:12;;;;;;;15.82;3.42;;;13.60;99.90;;;;;;5027861;28;20041;-79
2022/10/07 07:17:41;;;;;;;11.30;2.50;;;13.50;99.90;;;;;;5025393;28;20559;-80
2022/10/07 07:20:10;;;;;;;17.48;3.13;;;13.50;99.90;;;;;;5027627;28;20041;-77
2022/10/07 07:22:39;;;;;;;16.10;3.13;;;13.30;99.90;;;;;;5027726;28;20064;-78
2022/10/07 07:25:08;;;;;;;20.65;4.30;;;13.20;99.90;;;;;;5029782;28;20045;-80
2022/10/07 07:27:36;;;;;;;12.10;3.28;;;13.30;99.90;;;;;;5032050;28;20057;-78
2022/10/07 07:30:08;;;;;;;11.90;3.70;;;13.40;99.90;;;;;;5028385;28;20057;-77
2022/10/07 07:32:36;;;;;;;12.63;3.08;;;13.40;99.90;;;;;;5030648;28;20050;-77
2022/10/07 07:35:04;;;;;;;18.80;2.90;;;13.50;99.90;;;;;;5025631;28;20149;-77
2022/10/07 07:37:32;;;;;;;20.30;3.72;;;13.60;99.90;;;;;;4978799;28;20069;-77
2022/10/07 07:40:00;;;;;;;19.92;3.33;;;13.80;99.90;;;;;;5027570;28;20053;-78
2022/10/07 07:42:28;;;;;;;17.38;2.80;;;14.20;99.90;;;;;;5027196;28;20103;-78
2022/10/07 07:44:55;;;;;;;17.63;3.58;;;14.70;99.90;;;;;;5026197;28;20056;-77
2022/10/07 07:47:25;;;;;;;10.27;2.97;;;15.30;99.90;;;;;;5030456;28;20056;-77
2022/10/07 07:49:53;;;;;;;19.05;3.85;;;15.90;99.90;;;;;;5023814;28;20053;-76
2022/10/07 07:52:27;;;;;;;12.77;3.53;;;16.40;99.90;;;;;;5027140;28;20048;-76
2022/10/07 07:54:58;;;;;;;17.25;3.90;;;16.30;99.90;;;;;;5008239;28;20051;-77
2022/10/07 07:57:26;;;;;;;17.92;3.53;;;15.90;99.90;;;;;;5026517;28;20077;-77
2022/10/07 07:59:54;;;;;;;13.23;2.88;;;15.50;99.90;;;;;;5025492;28;20095;-77
2022/10/07 08:02:23;;;;;;;11.70;3.05;;;15.30;99.90;;;;;;5023919;28;20041;-76
2022/10/07 08:04:52;;;;;;;13.35;3.60;;;15.00;99.90;;;;;;5028832;28;20099;-76
2022/10/07 08:07:20;;;;;;;13.90;3.45;;;15.10;99.90;;;;;;5026811;28;20099;-76
2022/10/07 08:09:50;;;;;;;13.50;3.35;;;16.10;99.90;;;;;;5043165;28;20060;-77
2022/10/07 08:12:19;;;;;;;11.57;3.22;;;17.40;99.90;;;;;;5027083;28;20045;-78
2022/10/07 08:14:49;;;;;;;13.90;3.28;;;18.20;99.90;;;;;;5028565;28;20551;-77
2022/10/07 08:17:17;;;;;;;17.83;3.85;;;18.90;99.90;;;;;;5026612;28;20516;-78
2022/10/07 08:19:46;;;;;;;16.90;3.50;;;19.90;99.90;;;;;;5013067;28;20530;-78
2022/10/07 08:22:16;;;;;;;12.38;3.42;;;20.20;99.90;;;;;;5043140;28;20525;-77
2022/10/07 08:24:45;;;;;;;12.65;3.33;;;20.20;99.90;;;;;;5028514;28;20630;-79
2022/10/07 08:27:14;;;;;;;13.35;3.63;;;21.00;99.90;;;;;;5027761;28;20049;-78
2022/10/07 08:29:41;;;;;;;13.18;3.05;;;21.20;99.90;;;;;;5025501;28;20417;-76
2022/10/07 08:32:10;;;;;;;14.13;3.03;;;20.80;99.90;;;;;;5024797;28;20052;-77
2022/10/07 08:34:38;;;;;;;9.48;3.17;;;20.50;99.90;;;;;;5027354;28;20052;-78
2022/10/07 08:37:07;;;;;;;14.13;3.75;;;20.50;99.90;;;;;;5028353;28;20045;-75
2022/10/07 08:39:35;;;;;;;14.77;3.88;;;21.00;99.90;;;;;;5028810;28;20128;-73
2022/10/07 08:42:13;;;;;;;13.85;3.50;;;21.70;99.90;;;;;;5027701;28;20073;-74
2022/10/07 08:44:44;;;;;;;14.75;4.13;;;22.20;99.90;;;;;;5026171;28;20697;-75
2022/10/07 08:47:22;;;;;;;13.93;3.78;;;21.80;99.90;;;;;;5026840;28;20075;-75
2022/10/07 08:50:01;;;;;;;15.48;3.50;;;21.50;99.90;;;;;;5024385;28;20064;-77
2022/10/07 08:52:47;;;;;;;19.92;4.28;;;21.40;99.90;;;;;;5026284;28;20053;-78
2022/10/07 08:55:19;;;;;;;16.77;3.92;;;20.20;99.90;;;;;;5026793;28;21131;-77
2022/10/07 08:58:17;;;;;;;15.03;3.93;;;19.20;99.90;;;;;;5026433;28;20107;-78
2022/10/07 09:00:52;;;;;;;12.77;3.55;;;18.80;99.90;;;;;;5005046;28;20041;-77
2022/10/07 09:03:35;;;;;;;19.13;4.30;;;19.20;99.90;;;;;;5025848;28;20085;-77
2022/10/07 09:06:12;;;;;;;15.63;3.58;;;19.90;99.90;;;;;;5029893;28;20061;-76
2022/10/07 09:08:45;;;;;;;14.13;3.97;;;19.50;99.90;;;;;;5026122;28;20132;-76
2022/10/07 09:11:18;;;;;;;;;;;18.70;99.90;;;;;;5028222;28;20517;-76
2022/10/07 09:13:51;;;;;;;16.23;3.53;;;17.90;99.90;;;;;;5028485;28;19924;-76
2022/10/07 09:16:23;;;;;;;12.35;3.83;;;17.20;99.90;;;;;;5024920;28;20575;-76
2022/10/07 09:18:54;;;;;;;14.77;4.03;;;16.70;99.90;;;;;;5025637;28;20061;-78
2022/10/07 09:21:31;;;;;;;15.95;3.53;;;16.40;99.90;;;;;;5025521;28;20045;-77
2022/10/07 09:24:15;;;;;;;19.10;3.70;;;16.20;99.90;;;;;;5027457;28;20394;-76
2022/10/07 09:26:43;;;;;;;17.98;3.75;;;16.30;99.90;;;;;;5025592;28;20080;-76
2022/10/07 09:29:11;;;;;;;15.90;3.75;;;16.50;99.90;;;;;;5027714;28;20060;-75
2022/10/07 09:31:39;;;;;;;13.43;3.53;;;17.00;99.90;;;;;;5024821;28;20045;-75
2022/10/07 09:34:13;;;;;;;12.60;3.20;;;17.50;99.90;;;;;;5025070;28;20144;-76
2022/10/07 09:37:13;;;;;;;16.88;4.57;;;17.80;99.90;;;;;;5026329;28;20063;-76
2022/10/07 09:39:44;;;;;;;14.73;3.05;;;17.70;99.90;;;;;;5027894;28;20132;-75
2022/10/07 09:42:33;;;;;;;20.30;3.85;;;17.60;99.90;;;;;;5009692;28;20045;-76
2022/10/07 09:45:04;;;;;;;12.13;3.28;;;17.50;99.90;;;;;;5024289;28;20057;-79
2022/10/07 09:47:39;;;;;;;17.63;4.22;;;17.70;99.90;;;;;;5026684;28;20054;-76
2022/10/07 09:50:35;;;;;;;18.73;4.22;;;18.40;99.90;;;;;;5025528;28;20083;-77
2022/10/07 09:53:03;;;;;;;14.55;4.40;;;19.20;99.90;;;;;;5027987;28;20041;-77
2022/10/07 09:55:39;;;;;;;20.70;3.78;;;18.90;99.90;;;;;;5025474;28;20046;-76
2022/10/07 09:58:17;;;;;;;16.02;4.35;;;18.40;99.90;;;;;;5026572;28;20048;-76
2022/10/07 10:00:47;;;;;;;14.93;3.50;;;18.10;99.90;;;;;;5026016;28;20136;-78
2022/10/07 10:03:14;;;;;;;16.58;4.05;;;18.60;99.90;;;;;;5024675;28;20127;-76
2022/10/07 10:05:53;;;;;;;18.20;3.90;;;20.00;99.90;;;;;;5027306;28;20103;-77
2022/10/07 10:08:29;;;;;;;24.17;4.97;;;21.00;99.90;;;;;;5028046;28;20474;-73
2022/10/07 10:11:00;;;;;;;16.95;3.38;;;20.40;99.90;;;;;;5027529;28;20048;-74
2022/10/07 10:13:33;;;;;;;14.07;3.55;;;20.00;99.90;;;;;;5022413;28;20544;-74
2022/10/07 10:16:01;;;;;;;17.45;4.18;;;19.80;99.90;;;;;;5026165;28;20076;-76
2022/10/07 10:18:38;;;;;;;17.95;4.03;;;19.50;99.90;;;;;;5026715;28;20047;-77
2022/10/07 10:21:26;;;;;;;14.15;3.55;;;19.10;99.90;;;;;;5026072;28;20053;-77
2022/10/07 10:23:56;;;;;;;13.65;2.92;;;19.10;99.90;;;;;;5026531;28;20600;-77
2022/10/07 10:26:55;;;;;;;17.52;3.22;;;19.30;99.90;;;;;;5025878;28;20108;-74
2022/10/07 10:29:38;;;;;;;16.00;3.85;;;19.40;99.90;;;;;;5028338;28;20049;-73
2022/10/07 10:32:46;;;;;;;17.05;3.55;;;18.90;99.90;;;;;;5026149;28;20390;-73
2022/10/07 10:35:19;;;;;;;13.70;3.67;;;19.30;99.90;;;;;;5025095;28;20140;-73
2022/10/07 10:38:22;;;;;;;14.75;3.53;;;19.60;99.90;;;;;;5025277;28;20038;-76
2022/10/07 10:41:00;;;;;;;18.77;4.13;;;19.40;99.90;;;;;;5026471;28;20046;-74
2022/10/07 10:43:37;;;;;;;16.48;4.25;;;19.50;99.90;;;;;;5025775;28;20073;-75
2022/10/07 10:46:26;;;;;;;10.18;2.88;;;20.20;99.90;;;;;;5025104;28;20045;-75
2022/10/07 10:49:05;;;;;;;13.30;3.50;;;21.00;99.90;;;;;;5025078;28;20389;-74
2022/10/07 10:51:54;;;;;;;13.35;3.60;;;21.90;99.90;;;;;;5024404;28;20508;-77
2022/10/07 10:54:31;;;;;;;19.30;4.05;;;22.00;98.00;;;;;;5041297;28;20069;-80
2022/10/07 10:57:08;;;;;;;16.20;4.40;;;21.20;98.60;;;;;;5023285;28;20489;-78
2022/10/07 11:00:00;;;;;;;16.88;3.42;;;20.40;99.90;;;;;;5022332;28;20057;-79
2022/10/07 11:02:54;;;;;;;14.93;3.85;;;19.50;99.90;;;;;;5021876;28;20567;-76
2022/10/07 11:05:25;;;;;;;17.23;3.50;;;18.70;99.90;;;;;;5024327;28;20038;-78
2022/10/07 11:07:57;;;;;;;18.05;2.97;;;18.10;99.90;;;;;;5023690;28;20103;-78
2022/10/07 11:10:30;;;;;;;12.40;3.03;;;17.70;99.90;;;;;;5028113;28;20057;-78
2022/10/07 11:13:05;;;;;;;13.52;3.25;;;17.30;99.90;;;;;;5024339;28;20556;-76
2022/10/07 11:15:40;;;;;;;11.85;4.28;;;16.90;99.90;;;;;;5025757;28;20131;-77
2022/10/07 11:18:16;;;;;;;13.45;3.28;;;16.70;99.90;;;;;;5024461;28;20065;-79
2022/10/07 11:20:47;;;;;;;18.05;3.75;;;16.60;99.90;;;;;;5008838;28;21036;-77
2022/10/07 11:23:23;;;;;;;18.48;3.92;;;16.60;99.90;;;;;;5024494;28;20046;-76
2022/10/07 11:25:57;;;;;;;19.52;3.75;;;16.60;99.90;;;;;;5026951;28;20057;-77
2022/10/07 11:28:28;;;;;;;15.98;3.47;;;16.50;99.90;;;;;;5028203;28;20049;-76
2022/10/07 11:31:05;;;;;;;11.30;3.75;;;16.40;99.90;;;;;;5027201;28;20115;-78
2022/10/07 11:33:39;;;;;;;14.13;3.58;;;16.40;99.90;;;;;;5044301;28;20464;-79
2022/10/07 11:36:15;;;;;;;16.98;3.70;;;16.40;99.90;;;;;;5024567;28;20081;-77
2022/10/07 11:38:43;;;;;;;19.98;3.63;;;16.40;99.90;;;;;;5026168;28;20045;-75
2022/10/07 11:41:20;;;;;;;13.15;3.40;;;16.50;99.90;;;;;;5030127;28;20057;-79
2022/10/07 11:43:52;;;;;;;13.43;3.17;;;16.70;99.90;;;;;;5026165;28;20144;-77
2022/10/07 11:46:26;;;;;;;15.50;3.05;;;17.10;99.90;;;;;;5023309;28;20417;-79
2022/10/07 11:49:01;;;;;;;12.77;3.00;;;17.80;99.90;;;;;;5026635;28;20081;-78
2022/10/07 11:51:34;;;;;;;14.57;3.50;;;18.30;99.90;;;;;;5028550;28;20060;-75
2022/10/07 11:54:06;;;;;;;17.63;3.63;;;18.70;99.90;;;;;;5025586;28;20060;-75
2022/10/07 11:56:38;;;;;;;10.20;2.72;;;18.80;99.90;;;;;;5029229;28;20140;-78
2022/10/07 11:59:07;;;;;;;11.65;3.55;;;19.00;99.90;;;;;;5027761;28;20509;-78
2022/10/07 12:01:54;;;;;;;9.25;2.58;;;19.10;99.90;;;;;;5028019;28;20056;-80
2022/10/07 12:04:38;;;;;;;15.05;3.25;;;18.50;99.90;;;;;;5026699;28;20144;-77
2022/10/07 12:07:39;;;;;;;10.40;2.67;;;17.90;99.90;;;;;;5029996;28;20408;-78
2022/10/07 12:10:32;;;;;;;10.75;3.38;;;17.90;99.90;;;;;;5028874;28;20053;-77
2022/10/07 12:13:39;;;;;;;12.60;2.67;;;17.50;99.90;;;;;;5015532;28;20142;-76
2022/10/07 12:16:54;;;;;;;17.80;2.88;;;17.20;99.90;;;;;;5031017;28;20053;-77
2022/10/07 12:19:22;;;;;;;15.10;3.28;;;17.10;99.90;;;;;;5022713;28;20509;-78
2022/10/07 12:22:17;;;;;;;19.00;3.00;;;16.90;99.90;;;;;;5029219;28;20041;-78
2022/10/07 12:25:27;;;;;;;19.35;2.72;;;16.90;99.90;;;;;;5029665;28;20045;-77
2022/10/07 12:27:55;;;;;;;11.25;3.58;;;17.00;99.90;;;;;;5032506;28;20060;-78
2022/10/07 12:30:42;;;;;;;11.57;2.65;;;17.20;99.90;;;;;;5029958;28;20041;-79
2022/10/07 12:33:26;;;;;;;13.73;2.95;;;17.10;99.90;;;;;;5027078;28;20421;-78
2022/10/07 12:35:54;;;;;;;11.70;3.38;;;17.50;99.90;;;;;;5026699;28;20441;-77
2022/10/07 12:38:27;;;;;;;11.23;2.78;;;17.50;99.90;;;;;;5043759;28;20111;-79
2022/10/07 12:41:23;;;;;;;9.57;3.03;;;17.30;99.90;;;;;;5028979;28;20054;-78
2022/10/07 12:43:59;;;;;;;15.88;3.35;;;17.30;99.90;;;;;;5029849;28;20063;-76
2022/10/07 12:46:31;;;;;;;12.30;3.47;;;17.10;99.90;;;;;;5011108;28;20119;-76
2022/10/07 12:49:05;;;;;;;14.90;3.45;;;16.80;99.90;;;;;;5008342;28;20086;-76
2022/10/07 12:51:38;;;;;;;17.27;2.80;;;16.50;99.90;;;;;;5024690;28;20735;-76
2022/10/07 12:54:14;;;;;;;14.23;3.15;;;16.30;99.90;;;;;;5021755;28;20045;-72
2022/10/07 12:56:44;;;;;;;13.13;3.80;;;16.10;99.90;;;;;;5028002;28;20420;-72
2022/10/07 12:59:47;;;;;;;11.10;3.13;;;15.90;99.90;;;;;;5028658;28;20052;-72
2022/10/07 13:02:56;;;;;;;11.82;2.58;;;15.80;99.90;;;;;;5025113;28;20470;-76
2022/10/07 13:06:08;;;;;;;12.05;3.78;;;15.90;99.90;;;;;;5027300;28;20084;-75
2022/10/07 13:09:16;;;;;;;10.27;3.30;;;15.80;99.90;;;;;;5027623;28;20119;-76
2022/10/07 13:12:30;;;;;;;14.25;3.08;;;15.80;99.90;;;;;;5047579;28;20103;-76
2022/10/07 13:15:13;;;;;;;10.35;2.25;;;15.80;99.90;;;;;;5024493;28;20041;-76
2022/10/07 13:17:50;;;;;;;16.95;2.88;;;15.60;99.90;;;;;;5027160;28;20520;-76
2022/10/07 13:20:46;;;;;;;13.77;3.20;;;15.60;99.90;;;;;;5026178;28;20057;-77